createdAt,value
2022-08-02T00:00:31.828Z,1012.09
2022-08-02T00:01:31.919Z,1012.08
2022-08-02T00:02:31.797Z,1012.10
2022-08-02T00:03:31.780Z,1012.10
2022-08-02T00:04:31.769Z,1012.09
2022-08-02T00:05:31.796Z,1012.09
2022-08-02T00:06:31.733Z,1012.09
2022-08-02T00:07:31.721Z,1012.13
2022-08-02T00:08:31.697Z,1012.12
2022-08-02T00:09:31.681Z,1012.13
2022-08-02T00:10:31.665Z,1012.12
2022-08-02T00:11:31.649Z,1012.15
2022-08-02T00:12:31.636Z,1012.13
2022-08-02T00:13:31.617Z,1012.16
2022-08-02T00:14:31.611Z,1012.12
2022-08-02T00:15:31.589Z,1012.17
2022-08-02T00:16:37.988Z,1012.21
2022-08-02T00:17:31.583Z,1012.22
2022-08-02T00:18:31.538Z,1012.24
2022-08-02T00:19:31.521Z,1012.27
2022-08-02T00:20:31.507Z,1012.28
2022-08-02T00:21:31.490Z,1012.30
2022-08-02T00:22:31.471Z,1012.29
2022-08-02T00:23:31.458Z,1012.27
2022-08-02T00:24:31.439Z,1012.28
2022-08-02T00:25:31.420Z,1012.24
2022-08-02T00:26:31.409Z,1012.29
2022-08-02T00:27:31.395Z,1012.28
2022-08-02T00:28:31.373Z,1012.24
2022-08-02T00:29:31.684Z,1012.26
2022-08-02T00:30:31.339Z,1012.29
2022-08-02T00:31:31.323Z,1012.27
2022-08-02T00:32:31.307Z,1012.24
2022-08-02T00:34:27.023Z,1012.27
2022-08-02T00:34:34.009Z,1012.23
2022-08-02T00:35:31.261Z,1012.22
2022-08-02T00:36:31.241Z,1012.17
2022-08-02T00:37:31.230Z,1012.19
2022-08-02T00:38:31.210Z,1012.23
2022-08-02T00:39:33.538Z,1012.20
2022-08-02T00:40:31.187Z,1012.19
2022-08-02T00:41:31.159Z,1012.20
2022-08-02T00:42:31.140Z,1012.19
2022-08-02T00:43:31.127Z,1012.19
2022-08-02T00:44:31.108Z,1012.14
2022-08-02T00:46:03.416Z,1012.20
2022-08-02T00:46:31.417Z,1012.17
2022-08-02T00:47:31.058Z,1012.12
2022-08-02T00:48:31.040Z,1012.14
2022-08-02T00:49:31.073Z,1012.11
2022-08-02T00:50:31.012Z,1012.10
2022-08-02T00:51:31.036Z,1012.08
2022-08-02T00:52:30.980Z,1012.10
2022-08-02T00:53:30.962Z,1012.08
2022-08-02T00:54:30.948Z,1012.07
2022-08-02T00:55:31.490Z,1012.06
2022-08-02T00:56:31.122Z,1012.06
2022-08-02T00:57:30.899Z,1012.04
2022-08-02T00:58:30.879Z,1012.09
2022-08-02T00:59:30.864Z,1012.05
2022-08-02T01:00:30.845Z,1012.03
2022-08-02T01:01:30.898Z,1012.06
2022-08-02T01:02:30.816Z,1012.08
2022-08-02T01:03:30.797Z,1012.07
2022-08-02T01:04:32.226Z,1012.11
2022-08-02T01:05:35.979Z,1012.16
2022-08-02T01:06:30.747Z,1012.17
2022-08-02T01:07:30.731Z,1012.15
2022-08-02T01:08:31.953Z,1012.15
2022-08-02T01:09:30.700Z,1012.14
2022-08-02T01:10:30.677Z,1012.15
2022-08-02T01:11:30.708Z,1012.14
2022-08-02T01:12:30.645Z,1012.15
2022-08-02T01:13:30.632Z,1012.09
2022-08-02T01:14:30.615Z,1012.09
2022-08-02T01:15:36.164Z,1012.09
2022-08-02T01:16:30.576Z,1012.11
2022-08-02T01:17:30.561Z,1012.12
2022-08-02T01:18:30.780Z,1012.13
2022-08-02T01:19:30.528Z,1012.10
2022-08-02T01:20:30.516Z,1012.08
2022-08-02T01:21:30.498Z,1012.08
2022-08-02T01:22:58.537Z,1012.09
2022-08-02T01:23:30.460Z,1012.10
2022-08-02T01:24:30.472Z,1012.10
2022-08-02T01:25:30.429Z,1012.09
2022-08-02T01:26:30.410Z,1012.11
2022-08-02T01:27:30.400Z,1012.08
2022-08-02T01:28:30.383Z,1012.11
2022-08-02T01:29:30.359Z,1012.08
2022-08-02T01:30:30.346Z,1012.04
2022-08-02T01:31:30.332Z,1012.07
2022-08-02T01:32:30.311Z,1012.03
2022-08-02T01:33:30.298Z,1012.05
2022-08-02T01:34:30.279Z,1012.10
2022-08-02T01:35:30.269Z,1012.06
2022-08-02T01:36:30.245Z,1012.05
2022-08-02T01:37:30.233Z,1012.04
2022-08-02T01:38:30.224Z,1012.03
2022-08-02T01:39:32.232Z,1012.00
2022-08-02T01:40:30.181Z,1012.00
2022-08-02T01:41:30.163Z,1012.02
2022-08-02T01:42:30.142Z,1011.98
2022-08-02T01:43:30.129Z,1011.99
2022-08-02T01:44:30.113Z,1011.95
2022-08-02T01:45:30.094Z,1011.98
2022-08-02T01:46:30.100Z,1011.96
2022-08-02T01:47:30.061Z,1011.95
2022-08-02T01:48:30.041Z,1011.96
2022-08-02T01:49:30.169Z,1011.99
2022-08-02T01:50:30.012Z,1011.96
2022-08-02T01:51:30.000Z,1011.95
2022-08-02T01:52:29.981Z,1011.94
2022-08-02T01:53:29.960Z,1011.97
2022-08-02T01:54:29.945Z,1011.99
2022-08-02T01:55:35.299Z,1011.99
2022-08-02T01:56:29.908Z,1012.05
2022-08-02T01:57:29.892Z,1012.05
2022-08-02T01:58:29.911Z,1012.06
2022-08-02T01:59:29.859Z,1012.04
2022-08-02T02:00:30.173Z,1012.03
2022-08-02T02:01:29.880Z,1012.03
2022-08-02T02:02:31.775Z,1012.02
2022-08-02T02:03:29.794Z,1012.04
2022-08-02T02:04:29.782Z,1012.00
2022-08-02T02:05:30.088Z,1012.00
2022-08-02T02:06:29.744Z,1011.97
2022-08-02T02:07:29.730Z,1011.96
2022-08-02T02:08:29.709Z,1011.93
2022-08-02T02:09:29.696Z,1011.95
2022-08-02T02:10:29.678Z,1011.91
2022-08-02T02:12:05.885Z,1011.88
2022-08-02T02:12:29.645Z,1011.85
2022-08-02T02:13:33.792Z,1011.87
2022-08-02T02:14:29.604Z,1011.87
2022-08-02T02:15:29.590Z,1011.87
2022-08-02T02:16:29.575Z,1011.84
2022-08-02T02:18:10.853Z,1011.84
2022-08-02T02:18:29.536Z,1011.81
2022-08-02T02:19:29.526Z,1011.81
2022-08-02T02:20:29.508Z,1011.79
2022-08-02T02:21:29.494Z,1011.77
2022-08-02T02:22:29.475Z,1011.71
2022-08-02T02:23:32.777Z,1011.67
2022-08-02T02:24:29.440Z,1011.67
2022-08-02T02:25:35.878Z,1011.70
2022-08-02T02:26:31.630Z,1011.70
2022-08-02T02:27:29.392Z,1011.67
2022-08-02T02:28:29.369Z,1011.68
2022-08-02T02:29:29.360Z,1011.69
2022-08-02T02:30:29.335Z,1011.69
2022-08-02T02:31:29.320Z,1011.71
2022-08-02T02:32:29.305Z,1011.71
2022-08-02T02:33:29.654Z,1011.67
2022-08-02T02:34:29.273Z,1011.67
2022-08-02T02:35:29.255Z,1011.69
2022-08-02T02:36:29.237Z,1011.68
2022-08-02T02:37:29.222Z,1011.69
2022-08-02T02:38:29.202Z,1011.65
2022-08-02T02:39:29.188Z,1011.69
2022-08-02T02:40:29.169Z,1011.66
2022-08-02T02:41:29.304Z,1011.61
2022-08-02T02:42:29.136Z,1011.62
2022-08-02T02:43:29.118Z,1011.58
2022-08-02T02:44:29.108Z,1011.57
2022-08-02T02:45:29.084Z,1011.56
2022-08-02T02:46:29.070Z,1011.51
2022-08-02T02:47:40.761Z,1011.50
2022-08-02T02:48:29.034Z,1011.45
2022-08-02T02:49:29.085Z,1011.46
2022-08-02T02:50:28.998Z,1011.47
2022-08-02T02:51:28.987Z,1011.47
2022-08-02T02:52:28.963Z,1011.44
2022-08-02T02:53:28.949Z,1011.41
2022-08-02T02:54:34.467Z,1011.44
2022-08-02T02:55:28.921Z,1011.48
2022-08-02T02:56:28.895Z,1011.45
2022-08-02T02:57:28.880Z,1011.46
2022-08-02T02:58:29.179Z,1011.42
2022-08-02T02:59:28.848Z,1011.44
2022-08-02T03:00:28.832Z,1011.42
2022-08-02T03:01:55.378Z,1011.43
2022-08-02T03:02:28.796Z,1011.45
2022-08-02T03:03:28.779Z,1011.47
2022-08-02T03:04:56.356Z,1011.50
2022-08-02T03:05:28.746Z,1011.52
2022-08-02T03:06:28.728Z,1011.51
2022-08-02T03:07:28.712Z,1011.57
2022-08-02T03:08:28.697Z,1011.56
2022-08-02T03:09:28.679Z,1011.58
2022-08-02T03:10:28.657Z,1011.59
2022-08-02T03:11:28.639Z,1011.62
2022-08-02T03:12:31.793Z,1011.61
2022-08-02T03:13:33.171Z,1011.59
2022-08-02T03:14:28.588Z,1011.65
2022-08-02T03:15:28.572Z,1011.65
2022-08-02T03:16:28.553Z,1011.70
2022-08-02T03:17:28.540Z,1011.72
2022-08-02T03:18:28.519Z,1011.76
2022-08-02T03:19:33.196Z,1011.76
2022-08-02T03:20:28.489Z,1011.74
2022-08-02T03:21:28.473Z,1011.74
2022-08-02T03:22:28.451Z,1011.75
2022-08-02T03:23:28.437Z,1011.75
2022-08-02T03:24:28.598Z,1011.67
2022-08-02T03:25:28.400Z,1011.71
2022-08-02T03:26:28.386Z,1011.71
2022-08-02T03:27:28.367Z,1011.69
2022-08-02T03:28:28.349Z,1011.68
2022-08-02T03:29:31.508Z,1011.68
2022-08-02T03:30:28.317Z,1011.68
2022-08-02T03:31:28.307Z,1011.68
2022-08-02T03:32:28.279Z,1011.61
2022-08-02T03:33:28.263Z,1011.60
2022-08-02T03:34:28.246Z,1011.58
2022-08-02T03:35:28.229Z,1011.56
2022-08-02T03:36:28.215Z,1011.50
2022-08-02T03:37:28.192Z,1011.47
2022-08-02T03:38:29.185Z,1011.46
2022-08-02T03:39:28.162Z,1011.47
2022-08-02T03:40:28.143Z,1011.44
2022-08-02T03:41:28.129Z,1011.47
2022-08-02T03:42:28.107Z,1011.46
2022-08-02T03:43:28.611Z,1011.40
2022-08-02T03:44:28.076Z,1011.40
2022-08-02T03:45:28.057Z,1011.35
2022-08-02T03:46:28.042Z,1011.34
2022-08-02T03:47:28.018Z,1011.31
2022-08-02T03:48:31.894Z,1011.35
2022-08-02T03:49:28.093Z,1011.36
2022-08-02T03:50:27.969Z,1011.36
2022-08-02T03:51:27.952Z,1011.37
2022-08-02T03:52:27.935Z,1011.36
2022-08-02T03:53:27.913Z,1011.38
2022-08-02T03:54:34.764Z,1011.36
2022-08-02T03:55:27.882Z,1011.37
2022-08-02T03:56:27.862Z,1011.36
2022-08-02T03:57:27.852Z,1011.40
2022-08-02T03:58:27.826Z,1011.39
2022-08-02T03:59:27.815Z,1011.40
2022-08-02T04:00:27.802Z,1011.39
2022-08-02T04:01:27.876Z,1011.42
2022-08-02T04:02:27.757Z,1011.42
2022-08-02T04:03:27.742Z,1011.44
2022-08-02T04:04:27.728Z,1011.40
2022-08-02T04:05:27.708Z,1011.42
2022-08-02T04:06:28.457Z,1011.44
2022-08-02T04:08:33.505Z,1011.47
2022-08-02T04:08:37.125Z,1011.46
2022-08-02T04:09:27.637Z,1011.44
2022-08-02T04:10:27.620Z,1011.49
2022-08-02T04:11:27.604Z,1011.45
2022-08-02T04:12:27.587Z,1011.46
2022-08-02T04:13:31.657Z,1011.43
2022-08-02T04:14:27.551Z,1011.45
2022-08-02T04:15:27.534Z,1011.46
2022-08-02T04:16:27.515Z,1011.45
2022-08-02T04:17:27.504Z,1011.45
2022-08-02T04:18:27.482Z,1011.44
2022-08-02T04:19:27.462Z,1011.46
2022-08-02T04:20:27.448Z,1011.46
2022-08-02T04:21:48.432Z,1011.44
2022-08-02T04:22:27.414Z,1011.45
2022-08-02T04:23:27.395Z,1011.42
2022-08-02T04:24:27.376Z,1011.41
2022-08-02T04:25:35.239Z,1011.41
2022-08-02T04:26:28.498Z,1011.41
2022-08-02T04:27:50.620Z,1011.45
2022-08-02T04:28:27.614Z,1011.47
2022-08-02T04:29:27.289Z,1011.51
2022-08-02T04:30:27.270Z,1011.57
2022-08-02T04:31:27.252Z,1011.62
2022-08-02T04:32:27.239Z,1011.58
2022-08-02T04:33:27.224Z,1011.64
2022-08-02T04:34:27.201Z,1011.67
2022-08-02T04:35:27.185Z,1011.66
2022-08-02T04:36:30.931Z,1011.63
2022-08-02T04:37:27.154Z,1011.65
2022-08-02T04:38:27.142Z,1011.64
2022-08-02T04:39:27.119Z,1011.64
2022-08-02T04:40:27.101Z,1011.62
2022-08-02T04:41:27.078Z,1011.57
2022-08-02T04:42:27.060Z,1011.64
2022-08-02T04:43:27.051Z,1011.66
2022-08-02T04:44:27.030Z,1011.61
2022-08-02T04:45:27.010Z,1011.61
2022-08-02T04:46:26.994Z,1011.61
2022-08-02T04:48:02.358Z,1011.65
2022-08-02T04:48:26.960Z,1011.63
2022-08-02T04:49:27.086Z,1011.67
2022-08-02T04:50:26.924Z,1011.62
2022-08-02T04:51:38.180Z,1011.64
2022-08-02T04:52:26.891Z,1011.62
2022-08-02T04:53:26.878Z,1011.64
2022-08-02T04:54:26.854Z,1011.60
2022-08-02T04:55:26.840Z,1011.61
2022-08-02T04:56:26.820Z,1011.63
2022-08-02T04:57:26.802Z,1011.62
2022-08-02T04:58:42.269Z,1011.66
2022-08-02T04:59:26.769Z,1011.59
2022-08-02T05:00:26.930Z,1011.63
2022-08-02T05:01:26.734Z,1011.61
2022-08-02T05:02:26.720Z,1011.61
2022-08-02T05:03:26.706Z,1011.61
2022-08-02T05:04:26.690Z,1011.64
2022-08-02T05:05:26.667Z,1011.67
2022-08-02T05:06:26.647Z,1011.66
2022-08-02T05:07:26.636Z,1011.70
2022-08-02T05:08:26.614Z,1011.69
2022-08-02T05:09:26.599Z,1011.70
2022-08-02T05:10:26.581Z,1011.73
2022-08-02T05:11:34.385Z,1011.72
2022-08-02T05:12:26.548Z,1011.73
2022-08-02T05:13:26.533Z,1011.75
2022-08-02T05:14:26.513Z,1011.74
2022-08-02T05:15:29.271Z,1011.74
2022-08-02T05:16:30.885Z,1011.72
2022-08-02T05:17:26.463Z,1011.68
2022-08-02T05:18:26.444Z,1011.66
2022-08-02T05:19:26.431Z,1011.64
2022-08-02T05:20:26.411Z,1011.65
2022-08-02T05:21:26.409Z,1011.65
2022-08-02T05:22:26.374Z,1011.66
2022-08-02T05:23:26.365Z,1011.63
2022-08-02T05:24:26.342Z,1011.61
2022-08-02T05:25:26.325Z,1011.62
2022-08-02T05:26:26.307Z,1011.63
2022-08-02T05:27:26.291Z,1011.64
2022-08-02T05:28:26.275Z,1011.65
2022-08-02T05:29:26.259Z,1011.62
2022-08-02T05:30:26.243Z,1011.63
2022-08-02T05:31:26.227Z,1011.64
2022-08-02T05:32:26.206Z,1011.68
2022-08-02T05:33:26.196Z,1011.68
2022-08-02T05:34:26.177Z,1011.70
2022-08-02T05:35:26.160Z,1011.73
2022-08-02T05:36:26.145Z,1011.72
2022-08-02T05:37:26.128Z,1011.75
2022-08-02T05:38:26.382Z,1011.74
2022-08-02T05:39:26.089Z,1011.73
2022-08-02T05:40:26.323Z,1011.72
2022-08-02T05:41:26.056Z,1011.71
2022-08-02T05:42:26.040Z,1011.71
2022-08-02T05:43:26.019Z,1011.72
2022-08-02T05:44:26.006Z,1011.72
2022-08-02T05:45:25.985Z,1011.78
2022-08-02T05:46:25.970Z,1011.78
2022-08-02T05:47:25.993Z,1011.76
2022-08-02T05:48:31.169Z,1011.77
2022-08-02T05:49:25.977Z,1011.75
2022-08-02T05:50:25.901Z,1011.71
2022-08-02T05:51:25.886Z,1011.68
2022-08-02T05:52:25.872Z,1011.63
2022-08-02T05:53:25.854Z,1011.62
2022-08-02T05:54:25.836Z,1011.57
2022-08-02T05:55:25.819Z,1011.54
2022-08-02T05:56:25.801Z,1011.58
2022-08-02T05:57:25.784Z,1011.52
2022-08-02T05:58:25.769Z,1011.54
2022-08-02T05:59:25.750Z,1011.56
2022-08-02T06:00:25.737Z,1011.53
2022-08-02T06:01:25.792Z,1011.57
2022-08-02T06:02:30.207Z,1011.57
2022-08-02T06:03:25.688Z,1011.57
2022-08-02T06:04:25.671Z,1011.58
2022-08-02T06:05:25.649Z,1011.62
2022-08-02T06:06:25.637Z,1011.63
2022-08-02T06:07:25.708Z,1011.62
2022-08-02T06:08:25.621Z,1011.57
2022-08-02T06:09:27.178Z,1011.59
2022-08-02T06:10:25.563Z,1011.56
2022-08-02T06:11:25.549Z,1011.62
2022-08-02T06:12:25.531Z,1011.61
2022-08-02T06:13:25.514Z,1011.68
2022-08-02T06:14:25.499Z,1011.68
2022-08-02T06:15:25.485Z,1011.70
2022-08-02T06:16:31.727Z,1011.74
2022-08-02T06:17:25.446Z,1011.70
2022-08-02T06:18:28.600Z,1011.70
2022-08-02T06:19:25.425Z,1011.67
2022-08-02T06:20:25.398Z,1011.67
2022-08-02T06:22:32.596Z,1011.64
2022-08-02T06:22:33.474Z,1011.65
2022-08-02T06:23:25.350Z,1011.67
2022-08-02T06:24:25.340Z,1011.63
2022-08-02T06:25:49.714Z,1011.63
2022-08-02T06:26:25.301Z,1011.61
2022-08-02T06:27:25.286Z,1011.53
2022-08-02T06:28:25.266Z,1011.50
2022-08-02T06:29:25.252Z,1011.49
2022-08-02T06:30:25.235Z,1011.46
2022-08-02T06:31:25.235Z,1011.44
2022-08-02T06:32:25.204Z,1011.44
2022-08-02T06:33:25.181Z,1011.42
2022-08-02T06:34:25.172Z,1011.48
2022-08-02T06:35:25.153Z,1011.49
2022-08-02T06:36:25.141Z,1011.50
2022-08-02T06:37:25.120Z,1011.48
2022-08-02T06:38:25.110Z,1011.52
2022-08-02T06:39:25.091Z,1011.49
2022-08-02T06:40:25.087Z,1011.44
2022-08-02T06:41:25.058Z,1011.45
2022-08-02T06:42:27.219Z,1011.40
2022-08-02T06:43:25.027Z,1011.40
2022-08-02T06:44:49.800Z,1011.43
2022-08-02T06:45:24.990Z,1011.40
2022-08-02T06:47:02.030Z,1011.43
2022-08-02T06:47:24.964Z,1011.44
2022-08-02T06:48:24.950Z,1011.42
2022-08-02T06:49:25.043Z,1011.45
2022-08-02T06:50:24.943Z,1011.46
2022-08-02T06:51:24.900Z,1011.45
2022-08-02T06:52:28.359Z,1011.47
2022-08-02T06:53:24.867Z,1011.55
2022-08-02T06:54:24.853Z,1011.57
2022-08-02T06:55:24.835Z,1011.58
2022-08-02T06:56:24.835Z,1011.59
2022-08-02T06:57:24.809Z,1011.62
2022-08-02T06:58:24.793Z,1011.62
2022-08-02T06:59:24.776Z,1011.61
2022-08-02T07:00:24.824Z,1011.62
2022-08-02T07:01:24.799Z,1011.63
2022-08-02T07:02:24.730Z,1011.64
2022-08-02T07:03:24.721Z,1011.64
2022-08-02T07:04:24.701Z,1011.60
2022-08-02T07:05:24.682Z,1011.58
2022-08-02T07:06:24.670Z,1011.55
2022-08-02T07:07:24.660Z,1011.51
2022-08-02T07:08:24.639Z,1011.52
2022-08-02T07:09:24.628Z,1011.53
2022-08-02T07:10:24.608Z,1011.54
2022-08-02T07:11:24.602Z,1011.50
2022-08-02T07:12:24.611Z,1011.50
2022-08-02T07:13:24.563Z,1011.47
2022-08-02T07:14:24.551Z,1011.49
2022-08-02T07:15:24.536Z,1011.46
2022-08-02T07:16:24.520Z,1011.48
2022-08-02T07:17:24.504Z,1011.45
2022-08-02T07:18:24.509Z,1011.49
2022-08-02T07:19:31.931Z,1011.46
2022-08-02T07:20:24.464Z,1011.46
2022-08-02T07:21:56.844Z,1011.43
2022-08-02T07:22:24.666Z,1011.42
2022-08-02T07:23:24.416Z,1011.38
2022-08-02T07:24:24.402Z,1011.44
2022-08-02T07:25:24.389Z,1011.45
2022-08-02T07:26:24.371Z,1011.41
2022-08-02T07:27:24.357Z,1011.44
2022-08-02T07:28:24.884Z,1011.45
2022-08-02T07:29:24.329Z,1011.47
2022-08-02T07:30:24.330Z,1011.43
2022-08-02T07:31:24.308Z,1011.45
2022-08-02T07:32:24.295Z,1011.47
2022-08-02T07:33:37.691Z,1011.48
2022-08-02T07:34:24.260Z,1011.48
2022-08-02T07:35:24.245Z,1011.48
2022-08-02T07:36:24.264Z,1011.48
2022-08-02T07:37:35.358Z,1011.48
2022-08-02T07:38:24.207Z,1011.47
2022-08-02T07:39:24.188Z,1011.48
2022-08-02T07:40:24.240Z,1011.46
2022-08-02T07:41:24.161Z,1011.47
2022-08-02T07:42:24.147Z,1011.47
2022-08-02T07:43:24.137Z,1011.47
2022-08-02T07:44:24.125Z,1011.49
2022-08-02T07:45:24.113Z,1011.44
2022-08-02T07:46:24.098Z,1011.44
2022-08-02T07:47:24.082Z,1011.48
2022-08-02T07:48:24.072Z,1011.43
2022-08-02T07:49:24.195Z,1011.47
2022-08-02T07:50:24.048Z,1011.46
2022-08-02T07:51:24.031Z,1011.47
2022-08-02T07:52:24.011Z,1011.44
2022-08-02T07:53:49.872Z,1011.47
2022-08-02T07:54:23.985Z,1011.42
2022-08-02T07:55:23.980Z,1011.41
2022-08-02T07:56:23.965Z,1011.40
2022-08-02T07:57:23.951Z,1011.43
2022-08-02T07:58:23.933Z,1011.45
2022-08-02T07:59:23.921Z,1011.44
2022-08-02T08:00:23.928Z,1011.41
2022-08-02T08:01:23.969Z,1011.41
2022-08-02T08:02:23.887Z,1011.39
2022-08-02T08:03:23.875Z,1011.51
2022-08-02T08:04:23.881Z,1011.63
2022-08-02T08:05:23.848Z,1011.74
2022-08-02T08:06:28.596Z,1011.87
2022-08-02T08:07:23.832Z,1011.95
2022-08-02T08:08:23.823Z,1011.99
2022-08-02T08:09:23.810Z,1011.99
2022-08-02T08:10:23.800Z,1011.94
2022-08-02T08:11:23.800Z,1011.97
2022-08-02T08:12:23.789Z,1011.95
2022-08-02T08:13:23.773Z,1011.94
2022-08-02T08:14:23.761Z,1011.84
2022-08-02T08:15:23.760Z,1012.04
2022-08-02T08:16:23.751Z,1012.06
2022-08-02T08:17:23.741Z,1012.05
2022-08-02T08:18:23.733Z,1012.00
2022-08-02T08:19:50.445Z,1012.02
2022-08-02T08:20:23.725Z,1012.04
2022-08-02T08:21:23.718Z,1012.02
2022-08-02T08:22:23.710Z,1012.02
2022-08-02T08:23:23.707Z,1012.04
2022-08-02T08:24:23.698Z,1012.01
2022-08-02T08:25:23.691Z,1012.00
2022-08-02T08:26:23.688Z,1011.78
2022-08-02T08:27:23.685Z,1011.75
2022-08-02T08:28:23.677Z,1011.71
2022-08-02T08:29:23.673Z,1011.69
2022-08-02T08:30:23.669Z,1011.50
2022-08-02T08:31:23.663Z,1011.54
2022-08-02T08:32:24.158Z,1011.75
2022-08-02T08:33:23.649Z,1011.63
2022-08-02T08:34:23.646Z,1011.44
2022-08-02T08:35:23.640Z,1011.87
2022-08-02T08:36:23.633Z,1011.46
2022-08-02T08:37:23.627Z,1011.53
2022-08-02T08:38:23.617Z,1011.58
2022-08-02T08:39:23.616Z,1011.65
2022-08-02T08:40:23.609Z,1011.74
2022-08-02T08:41:23.604Z,1011.95
2022-08-02T08:42:23.595Z,1012.00
2022-08-02T08:43:23.589Z,1012.06
2022-08-02T08:44:23.582Z,1012.00
2022-08-02T08:45:23.578Z,1011.99
2022-08-02T08:46:23.575Z,1011.97
2022-08-02T08:47:23.575Z,1012.03
2022-08-02T08:48:30.529Z,1012.06
2022-08-02T08:49:23.610Z,1012.05
2022-08-02T08:50:25.448Z,1012.08
2022-08-02T08:51:23.552Z,1012.13
2022-08-02T08:52:23.547Z,1012.05
2022-08-02T08:53:23.551Z,1012.05
2022-08-02T08:54:23.540Z,1012.00
2022-08-02T08:55:23.538Z,1012.03
2022-08-02T08:56:23.540Z,1012.06
2022-08-02T08:57:23.535Z,1011.96
2022-08-02T08:58:23.532Z,1011.97
2022-08-02T08:59:23.528Z,1012.00
2022-08-02T09:00:23.524Z,1012.06
2022-08-02T09:01:23.603Z,1012.00
2022-08-02T09:02:26.163Z,1011.98
2022-08-02T09:03:23.517Z,1011.99
2022-08-02T09:04:23.530Z,1012.00
2022-08-02T09:05:23.514Z,1011.97
2022-08-02T09:06:23.514Z,1011.92
2022-08-02T09:07:23.514Z,1011.89
2022-08-02T09:08:23.509Z,1011.90
2022-08-02T09:09:23.508Z,1011.87
2022-08-02T09:10:23.506Z,1011.87
2022-08-02T09:11:23.511Z,1011.87
2022-08-02T09:12:23.522Z,1011.87
2022-08-02T09:13:38.127Z,1011.92
2022-08-02T09:14:23.502Z,1011.94
2022-08-02T09:15:23.505Z,1011.91
2022-08-02T09:16:23.500Z,1011.89
2022-08-02T09:17:23.502Z,1011.89
2022-08-02T09:18:23.495Z,1011.90
2022-08-02T09:19:23.493Z,1011.83
2022-08-02T09:20:26.031Z,1011.37
2022-08-02T09:21:23.495Z,1011.33
2022-08-02T09:22:23.501Z,1011.41
2022-08-02T09:23:23.485Z,1011.60
2022-08-02T09:24:23.489Z,1011.66
2022-08-02T09:25:23.483Z,1011.64
2022-08-02T09:26:23.481Z,1011.61
2022-08-02T09:27:23.475Z,1011.67
2022-08-02T09:28:23.474Z,1011.62
2022-08-02T09:29:23.472Z,1011.58
2022-08-02T09:30:23.469Z,1011.58
2022-08-02T09:31:23.465Z,1011.60
2022-08-02T09:32:23.468Z,1011.58
2022-08-02T09:33:23.461Z,1011.60
2022-08-02T09:34:23.457Z,1011.56
2022-08-02T09:35:23.457Z,1011.54
2022-08-02T09:36:23.457Z,1011.57
2022-08-02T09:37:23.448Z,1011.49
2022-08-02T09:38:23.447Z,1011.47
2022-08-02T09:39:23.444Z,1011.52
2022-08-02T09:40:23.438Z,1011.54
2022-08-02T09:41:23.436Z,1011.55
2022-08-02T09:42:23.430Z,1011.49
2022-08-02T09:43:23.434Z,1011.54
2022-08-02T09:44:23.427Z,1011.47
2022-08-02T09:45:23.435Z,1011.44
2022-08-02T09:46:24.552Z,1011.34
2022-08-02T09:47:23.422Z,1011.31
2022-08-02T09:48:23.414Z,1011.32
2022-08-02T09:49:23.427Z,1011.36
2022-08-02T09:50:23.408Z,1011.31
2022-08-02T09:51:23.405Z,1011.36
2022-08-02T09:52:23.398Z,1011.31
2022-08-02T09:53:23.398Z,1011.28
2022-08-02T09:54:23.399Z,1011.28
2022-08-02T09:55:23.395Z,1011.25
2022-08-02T09:56:34.288Z,1011.26
2022-08-02T09:57:23.380Z,1011.25
2022-08-02T09:58:23.379Z,1011.24
2022-08-02T09:59:23.378Z,1011.28
2022-08-02T10:00:43.567Z,1011.27
2022-08-02T10:01:34.852Z,1011.25
2022-08-02T10:02:23.545Z,1011.28
2022-08-02T10:03:23.364Z,1011.24
2022-08-02T10:04:24.844Z,1011.24
2022-08-02T10:05:23.345Z,1011.25
2022-08-02T10:06:23.343Z,1011.29
2022-08-02T10:07:23.354Z,1011.28
2022-08-02T10:08:23.348Z,1011.30
2022-08-02T10:09:23.329Z,1011.26
2022-08-02T10:10:23.322Z,1011.21
2022-08-02T10:11:23.316Z,1011.23
2022-08-02T10:12:23.319Z,1011.19
2022-08-02T10:13:23.307Z,1011.27
2022-08-02T10:14:23.414Z,1011.25
2022-08-02T10:15:27.085Z,1011.25
2022-08-02T10:16:23.295Z,1011.21
2022-08-02T10:17:23.283Z,1011.21
2022-08-02T10:18:38.313Z,1011.19
2022-08-02T10:20:02.675Z,1011.21
2022-08-02T10:20:23.275Z,1011.20
2022-08-02T10:21:23.265Z,1011.20
2022-08-02T10:22:23.257Z,1011.12
2022-08-02T10:23:23.248Z,1011.11
2022-08-02T10:24:23.242Z,1011.09
2022-08-02T10:25:23.240Z,1011.07
2022-08-02T10:26:23.240Z,1011.07
2022-08-02T10:27:23.226Z,1011.08
2022-08-02T10:28:23.217Z,1011.04
2022-08-02T10:29:23.211Z,1011.05
2022-08-02T10:30:23.211Z,1011.04
2022-08-02T10:31:23.206Z,1011.04
2022-08-02T10:32:23.191Z,1011.01
2022-08-02T10:33:23.187Z,1011.00
2022-08-02T10:34:23.179Z,1011.03
2022-08-02T10:35:26.009Z,1011.01
2022-08-02T10:36:23.177Z,1010.98
2022-08-02T10:37:23.156Z,1010.91
2022-08-02T10:38:23.150Z,1010.92
2022-08-02T10:39:23.145Z,1010.91
2022-08-02T10:40:23.139Z,1010.87
2022-08-02T10:41:23.129Z,1010.91
2022-08-02T10:42:23.122Z,1010.84
2022-08-02T10:43:23.120Z,1010.81
2022-08-02T10:44:24.656Z,1010.80
2022-08-02T10:45:23.133Z,1010.73
2022-08-02T10:46:23.100Z,1010.75
2022-08-02T10:47:23.084Z,1010.76
2022-08-02T10:48:23.075Z,1010.84
2022-08-02T10:49:40.405Z,1010.84
2022-08-02T10:50:23.063Z,1010.86
2022-08-02T10:51:24.525Z,1010.82
2022-08-02T10:52:23.049Z,1010.79
2022-08-02T10:53:23.040Z,1010.81
2022-08-02T10:54:23.026Z,1010.82
2022-08-02T10:55:23.044Z,1010.78
2022-08-02T10:56:23.013Z,1010.78
2022-08-02T10:57:23.210Z,1010.80
2022-08-02T10:58:26.043Z,1010.80
2022-08-02T10:59:22.985Z,1010.73
2022-08-02T11:00:22.980Z,1010.74
2022-08-02T11:01:23.077Z,1010.73
2022-08-02T11:02:22.964Z,1010.62
2022-08-02T11:03:22.958Z,1010.65
2022-08-02T11:04:22.947Z,1010.63
2022-08-02T11:05:22.941Z,1010.67
2022-08-02T11:06:25.184Z,1010.64
2022-08-02T11:07:22.925Z,1010.68
2022-08-02T11:08:22.913Z,1010.61
2022-08-02T11:09:22.904Z,1010.62
2022-08-02T11:10:22.898Z,1010.60
2022-08-02T11:11:26.146Z,1010.70
2022-08-02T11:12:22.887Z,1010.66
2022-08-02T11:13:22.895Z,1010.62
2022-08-02T11:14:22.866Z,1010.50
2022-08-02T11:15:22.866Z,1010.51
2022-08-02T11:16:22.844Z,1010.51
2022-08-02T11:17:22.839Z,1010.51
2022-08-02T11:18:22.831Z,1010.48
2022-08-02T11:19:22.818Z,1010.48
2022-08-02T11:20:22.814Z,1010.56
2022-08-02T11:21:22.809Z,1010.54
2022-08-02T11:22:25.797Z,1010.56
2022-08-02T11:23:22.786Z,1010.58
2022-08-02T11:24:22.776Z,1010.56
2022-08-02T11:25:22.799Z,1010.49
2022-08-02T11:26:22.763Z,1010.49
2022-08-02T11:27:22.757Z,1010.52
2022-08-02T11:28:25.006Z,1010.53
2022-08-02T11:29:22.736Z,1010.59
2022-08-02T11:30:26.489Z,1010.55
2022-08-02T11:31:22.721Z,1010.53
2022-08-02T11:32:30.497Z,1010.54
2022-08-02T11:33:22.703Z,1010.55
2022-08-02T11:34:26.610Z,1010.54
2022-08-02T11:35:22.686Z,1010.50
2022-08-02T11:36:22.831Z,1010.51
2022-08-02T11:37:22.670Z,1010.54
2022-08-02T11:38:22.660Z,1010.53
2022-08-02T11:39:22.662Z,1010.56
2022-08-02T11:40:22.649Z,1010.66
2022-08-02T11:41:47.404Z,1010.62
2022-08-02T11:42:22.624Z,1010.58
2022-08-02T11:43:22.620Z,1010.45
2022-08-02T11:44:23.396Z,1010.51
2022-08-02T11:45:26.299Z,1010.47
2022-08-02T11:46:22.598Z,1010.48
2022-08-02T11:47:22.587Z,1010.48
2022-08-02T11:48:22.577Z,1010.56
2022-08-02T11:49:22.635Z,1010.52
2022-08-02T11:50:30.183Z,1010.44
2022-08-02T11:51:22.549Z,1010.41
2022-08-02T11:52:22.543Z,1010.41
2022-08-02T11:53:22.535Z,1010.40
2022-08-02T11:54:22.526Z,1010.39
2022-08-02T11:55:22.517Z,1010.37
2022-08-02T11:56:25.169Z,1010.39
2022-08-02T11:57:22.497Z,1010.35
2022-08-02T11:58:22.487Z,1010.42
2022-08-02T11:59:22.482Z,1010.44
2022-08-02T12:00:22.475Z,1010.41
2022-08-02T12:01:22.466Z,1010.43
2022-08-02T12:02:22.459Z,1010.39
2022-08-02T12:03:22.520Z,1010.39
2022-08-02T12:04:23.560Z,1010.38
2022-08-02T12:05:27.266Z,1010.33